sensor_id;sensor_type;location;lat;lon;timestamp;P1;durP1;ratioP1;P2;durP2;ratioP2
39694;SDS011;25367;-35.352;149.036;2023-01-16T00:01:45;3.55;;;1.23;;
39694;SDS011;25367;-35.352;149.036;2023-01-16T00:04:15;5.07;;;1.27;;
39694;SDS011;25367;-35.352;149.036;2023-01-16T00:06:44;5.47;;;1.38;;
39694;SDS011;25367;-35.352;149.036;2023-01-16T00:09:14;3.92;;;1.63;;
39694;SDS011;25367;-35.352;149.036;2023-01-16T00:11:45;5.57;;;1.38;;
39694;SDS011;25367;-35.352;149.036;2023-01-16T00:14:16;4.35;;;1.35;;
39694;SDS011;25367;-35.352;149.036;2023-01-16T00:16:45;3.05;;;1.45;;
39694;SDS011;25367;-35.352;149.036;2023-01-16T00:19:15;2.30;;;1.40;;
39694;SDS011;25367;-35.352;149.036;2023-01-16T00:21:44;3.45;;;1.60;;
39694;SDS011;25367;-35.352;149.036;2023-01-16T00:24:14;6.53;;;1.40;;
39694;SDS011;25367;-35.352;149.036;2023-01-16T00:26:43;5.00;;;1.40;;
39694;SDS011;25367;-35.352;149.036;2023-01-16T00:29:13;2.97;;;1.50;;
39694;SDS011;25367;-35.352;149.036;2023-01-16T00:31:44;2.20;;;1.40;;
39694;SDS011;25367;-35.352;149.036;2023-01-16T00:34:13;3.35;;;1.48;;
39694;SDS011;25367;-35.352;149.036;2023-01-16T00:36:43;2.90;;;1.30;;
39694;SDS011;25367;-35.352;149.036;2023-01-16T00:39:12;3.13;;;1.45;;
39694;SDS011;25367;-35.352;149.036;2023-01-16T00:41:42;4.22;;;1.50;;
39694;SDS011;25367;-35.352;149.036;2023-01-16T00:44:11;2.13;;;1.20;;
39694;SDS011;25367;-35.352;149.036;2023-01-16T00:46:42;2.03;;;1.35;;
39694;SDS011;25367;-35.352;149.036;2023-01-16T00:49:12;2.58;;;1.42;;
39694;SDS011;25367;-35.352;149.036;2023-01-16T00:51:41;1.98;;;1.25;;
39694;SDS011;25367;-35.352;149.036;2023-01-16T00:54:11;2.40;;;1.27;;
39694;SDS011;25367;-35.352;149.036;2023-01-16T00:56:43;4.10;;;1.43;;
39694;SDS011;25367;-35.352;149.036;2023-01-16T00:59:12;2.33;;;1.38;;
39694;SDS011;25367;-35.352;149.036;2023-01-16T01:01:47;2.30;;;1.60;;
39694;SDS011;25367;-35.352;149.036;2023-01-16T01:04:16;2.92;;;1.50;;
39694;SDS011;25367;-35.352;149.036;2023-01-16T01:06:45;2.90;;;1.20;;
39694;SDS011;25367;-35.352;149.036;2023-01-16T01:09:15;1.90;;;1.33;;
39694;SDS011;25367;-35.352;149.036;2023-01-16T01:11:44;2.55;;;1.30;;
39694;SDS011;25367;-35.352;149.036;2023-01-16T01:14:14;3.03;;;1.35;;
39694;SDS011;25367;-35.352;149.036;2023-01-16T01:16:43;1.98;;;1.25;;
39694;SDS011;25367;-35.352;149.036;2023-01-16T01:19:15;2.05;;;1.17;;
39694;SDS011;25367;-35.352;149.036;2023-01-16T01:21:44;3.33;;;1.17;;
39694;SDS011;25367;-35.352;149.036;2023-01-16T01:24:13;2.03;;;1.40;;
39694;SDS011;25367;-35.352;149.036;2023-01-16T01:26:43;2.45;;;1.20;;
39694;SDS011;25367;-35.352;149.036;2023-01-16T01:29:12;5.38;;;1.30;;
39694;SDS011;25367;-35.352;149.036;2023-01-16T01:31:42;4.70;;;1.60;;
39694;SDS011;25367;-35.352;149.036;2023-01-16T01:34:13;1.92;;;1.33;;
39694;SDS011;25367;-35.352;149.036;2023-01-16T01:36:43;4.53;;;1.20;;
39694;SDS011;25367;-35.352;149.036;2023-01-16T01:39:12;2.92;;;1.20;;
39694;SDS011;25367;-35.352;149.036;2023-01-16T01:41:42;3.92;;;1.40;;
39694;SDS011;25367;-35.352;149.036;2023-01-16T01:47:29;5.47;;;1.00;;
39694;SDS011;25367;-35.352;149.036;2023-01-16T01:50:04;3.97;;;1.33;;
39694;SDS011;25367;-35.352;149.036;2023-01-16T01:52:40;7.47;;;3.70;;
39694;SDS011;25367;-35.352;149.036;2023-01-16T01:55:09;8.35;;;4.50;;
39694;SDS011;25367;-35.352;149.036;2023-01-16T01:57:42;6.95;;;4.15;;
39694;SDS011;25367;-35.352;149.036;2023-01-16T02:00:17;8.50;;;4.97;;
39694;SDS011;25367;-35.352;149.036;2023-01-16T02:02:48;10.43;;;5.25;;
39694;SDS011;25367;-35.352;149.036;2023-01-16T02:05:25;9.30;;;5.55;;
39694;SDS011;25367;-35.352;149.036;2023-01-16T02:07:58;8.88;;;5.65;;
39694;SDS011;25367;-35.352;149.036;2023-01-16T02:10:30;8.85;;;6.25;;
39694;SDS011;25367;-35.352;149.036;2023-01-16T02:13:05;8.43;;;5.32;;
39694;SDS011;25367;-35.352;149.036;2023-01-16T02:15:34;9.07;;;5.60;;
39694;SDS011;25367;-35.352;149.036;2023-01-16T02:18:08;10.15;;;6.00;;
39694;SDS011;25367;-35.352;149.036;2023-01-16T02:20:43;9.48;;;6.13;;
39694;SDS011;25367;-35.352;149.036;2023-01-16T02:32:33;7.85;;;5.65;;
39694;SDS011;25367;-35.352;149.036;2023-01-16T02:35:17;9.35;;;4.35;;
39694;SDS011;25367;-35.352;149.036;2023-01-16T02:38:03;8.88;;;5.25;;
39694;SDS011;25367;-35.352;149.036;2023-01-16T02:40:43;9.10;;;4.35;;
39694;SDS011;25367;-35.352;149.036;2023-01-16T02:43:22;7.53;;;4.90;;
39694;SDS011;25367;-35.352;149.036;2023-01-16T02:45:57;7.60;;;5.15;;
39694;SDS011;25367;-35.352;149.036;2023-01-16T02:48:37;7.68;;;4.78;;
39694;SDS011;25367;-35.352;149.036;2023-01-16T02:51:14;7.07;;;5.00;;
39694;SDS011;25367;-35.352;149.036;2023-01-16T02:53:51;6.22;;;4.60;;
39694;SDS011;25367;-35.352;149.036;2023-01-16T02:56:27;8.15;;;5.03;;
39694;SDS011;25367;-35.352;149.036;2023-01-16T02:59:03;7.53;;;5.13;;
39694;SDS011;25367;-35.352;149.036;2023-01-16T03:01:33;7.63;;;5.10;;
39694;SDS011;25367;-35.352;149.036;2023-01-16T03:04:34;6.82;;;4.43;;
39694;SDS011;25367;-35.352;149.036;2023-01-16T03:07:38;6.60;;;4.60;;
39694;SDS011;25367;-35.352;149.036;2023-01-16T03:10:47;6.82;;;4.38;;
39694;SDS011;25367;-35.352;149.036;2023-01-16T03:13:38;6.38;;;4.13;;
39694;SDS011;25367;-35.352;149.036;2023-01-16T03:16:29;8.20;;;4.75;;
39694;SDS011;25367;-35.352;149.036;2023-01-16T03:21:55;6.75;;;3.85;;
39694;SDS011;25367;-35.352;149.036;2023-01-16T03:24:36;6.10;;;4.00;;
39694;SDS011;25367;-35.352;149.036;2023-01-16T03:27:16;5.43;;;3.63;;
39694;SDS011;25367;-35.352;149.036;2023-01-16T03:29:57;7.05;;;4.22;;
39694;SDS011;25367;-35.352;149.036;2023-01-16T03:32:34;6.15;;;4.50;;
39694;SDS011;25367;-35.352;149.036;2023-01-16T03:35:12;8.45;;;4.13;;
39694;SDS011;25367;-35.352;149.036;2023-01-16T03:37:45;5.72;;;3.58;;
39694;SDS011;25367;-35.352;149.036;2023-01-16T03:40:18;5.57;;;3.70;;
39694;SDS011;25367;-35.352;149.036;2023-01-16T03:42:52;8.88;;;3.95;;
39694;SDS011;25367;-35.352;149.036;2023-01-16T03:45:28;7.22;;;4.13;;
39694;SDS011;25367;-35.352;149.036;2023-01-16T03:48:03;7.40;;;3.88;;
39694;SDS011;25367;-35.352;149.036;2023-01-16T03:50:39;5.82;;;3.50;;
39694;SDS011;25367;-35.352;149.036;2023-01-16T03:53:15;5.32;;;3.72;;
39694;SDS011;25367;-35.352;149.036;2023-01-16T03:55:50;5.53;;;3.35;;
39694;SDS011;25367;-35.352;149.036;2023-01-16T03:58:26;6.13;;;3.53;;
39694;SDS011;25367;-35.352;149.036;2023-01-16T04:01:00;5.25;;;3.55;;
39694;SDS011;25367;-35.352;149.036;2023-01-16T04:03:40;5.68;;;3.42;;
39694;SDS011;25367;-35.352;149.036;2023-01-16T04:06:16;5.05;;;3.10;;
39694;SDS011;25367;-35.352;149.036;2023-01-16T04:08:48;5.03;;;3.42;;
39694;SDS011;25367;-35.352;149.036;2023-01-16T04:11:20;5.83;;;3.23;;
39694;SDS011;25367;-35.352;149.036;2023-01-16T04:13:53;4.32;;;2.95;;
39694;SDS011;25367;-35.352;149.036;2023-01-16T04:16:24;5.30;;;3.25;;
39694;SDS011;25367;-35.352;149.036;2023-01-16T04:18:55;3.90;;;2.75;;
39694;SDS011;25367;-35.352;149.036;2023-01-16T04:21:28;4.82;;;3.10;;
39694;SDS011;25367;-35.352;149.036;2023-01-16T04:23:57;5.07;;;3.35;;
39694;SDS011;25367;-35.352;149.036;2023-01-16T04:26:27;4.57;;;3.13;;
39694;SDS011;25367;-35.352;149.036;2023-01-16T04:28:56;4.57;;;3.50;;
39694;SDS011;25367;-35.352;149.036;2023-01-16T04:31:26;5.35;;;3.42;;
39694;SDS011;25367;-35.352;149.036;2023-01-16T04:33:56;5.20;;;3.50;;
39694;SDS011;25367;-35.352;149.036;2023-01-16T04:36:25;5.63;;;3.40;;
39694;SDS011;25367;-35.352;149.036;2023-01-16T04:38:56;4.40;;;2.88;;
39694;SDS011;25367;-35.352;149.036;2023-01-16T04:41:26;6.13;;;3.47;;
39694;SDS011;25367;-35.352;149.036;2023-01-16T04:43:55;5.97;;;3.20;;
39694;SDS011;25367;-35.352;149.036;2023-01-16T04:46:24;4.93;;;2.80;;
39694;SDS011;25367;-35.352;149.036;2023-01-16T04:48:54;4.60;;;2.92;;
39694;SDS011;25367;-35.352;149.036;2023-01-16T04:51:23;6.05;;;3.40;;
39694;SDS011;25367;-35.352;149.036;2023-01-16T04:53:55;4.72;;;3.38;;
39694;SDS011;25367;-35.352;149.036;2023-01-16T04:56:24;5.45;;;3.08;;
39694;SDS011;25367;-35.352;149.036;2023-01-16T04:58:54;4.10;;;2.90;;
39694;SDS011;25367;-35.352;149.036;2023-01-16T05:01:23;4.88;;;2.92;;
39694;SDS011;25367;-35.352;149.036;2023-01-16T05:03:52;5.32;;;2.80;;
39694;SDS011;25367;-35.352;149.036;2023-01-16T05:06:22;4.72;;;3.00;;
39694;SDS011;25367;-35.352;149.036;2023-01-16T05:08:51;4.38;;;2.78;;
39694;SDS011;25367;-35.352;149.036;2023-01-16T05:11:23;4.53;;;2.60;;
39694;SDS011;25367;-35.352;149.036;2023-01-16T05:13:52;4.07;;;2.63;;
39694;SDS011;25367;-35.352;149.036;2023-01-16T05:16:22;4.50;;;2.13;;
39694;SDS011;25367;-35.352;149.036;2023-01-16T05:18:51;3.88;;;2.35;;
39694;SDS011;25367;-35.352;149.036;2023-01-16T05:21:20;7.03;;;2.22;;
39694;SDS011;25367;-35.352;149.036;2023-01-16T05:23:50;7.63;;;2.13;;
39694;SDS011;25367;-35.352;149.036;2023-01-16T05:26:21;3.75;;;1.70;;
39694;SDS011;25367;-35.352;149.036;2023-01-16T05:28:51;5.95;;;1.67;;
39694;SDS011;25367;-35.352;149.036;2023-01-16T05:31:21;8.38;;;2.60;;
39694;SDS011;25367;-35.352;149.036;2023-01-16T05:33:50;6.53;;;1.65;;
39694;SDS011;25367;-35.352;149.036;2023-01-16T05:36:20;5.47;;;2.03;;
39694;SDS011;25367;-35.352;149.036;2023-01-16T05:38:50;5.53;;;2.00;;
39694;SDS011;25367;-35.352;149.036;2023-01-16T05:41:19;5.50;;;1.60;;
39694;SDS011;25367;-35.352;149.036;2023-01-16T05:43:50;2.45;;;1.30;;
39694;SDS011;25367;-35.352;149.036;2023-01-16T05:46:20;5.75;;;1.40;;
39694;SDS011;25367;-35.352;149.036;2023-01-16T05:48:49;5.95;;;1.60;;
39694;SDS011;25367;-35.352;149.036;2023-01-16T05:51:19;2.38;;;1.40;;
39694;SDS011;25367;-35.352;149.036;2023-01-16T05:53:49;2.80;;;1.52;;
39694;SDS011;25367;-35.352;149.036;2023-01-16T05:56:19;7.00;;;1.67;;
39694;SDS011;25367;-35.352;149.036;2023-01-16T05:58:51;5.57;;;1.87;;
39694;SDS011;25367;-35.352;149.036;2023-01-16T06:01:21;5.93;;;1.58;;
39694;SDS011;25367;-35.352;149.036;2023-01-16T06:03:50;11.55;;;1.75;;
39694;SDS011;25367;-35.352;149.036;2023-01-16T06:06:20;5.82;;;1.60;;
39694;SDS011;25367;-35.352;149.036;2023-01-16T06:08:49;5.28;;;1.35;;
39694;SDS011;25367;-35.352;149.036;2023-01-16T06:11:18;5.28;;;1.55;;
39694;SDS011;25367;-35.352;149.036;2023-01-16T06:13:50;5.55;;;1.77;;
39694;SDS011;25367;-35.352;149.036;2023-01-16T06:16:19;17.38;;;1.60;;
39694;SDS011;25367;-35.352;149.036;2023-01-16T06:18:48;5.55;;;1.35;;
39694;SDS011;25367;-35.352;149.036;2023-01-16T06:21:18;11.27;;;1.48;;
39694;SDS011;25367;-35.352;149.036;2023-01-16T06:23:47;9.93;;;1.88;;
39694;SDS011;25367;-35.352;149.036;2023-01-16T06:26:16;6.70;;;1.45;;
39694;SDS011;25367;-35.352;149.036;2023-01-16T06:28:46;6.20;;;1.15;;
39694;SDS011;25367;-35.352;149.036;2023-01-16T06:31:18;3.70;;;1.27;;
39694;SDS011;25367;-35.352;149.036;2023-01-16T06:33:48;6.30;;;1.50;;
39694;SDS011;25367;-35.352;149.036;2023-01-16T06:36:17;2.80;;;1.35;;
39694;SDS011;25367;-35.352;149.036;2023-01-16T06:38:47;4.65;;;1.25;;
39694;SDS011;25367;-35.352;149.036;2023-01-16T06:41:16;6.47;;;1.50;;
39694;SDS011;25367;-35.352;149.036;2023-01-16T06:43:46;4.63;;;1.27;;
39694;SDS011;25367;-35.352;149.036;2023-01-16T06:46:17;4.80;;;1.30;;
39694;SDS011;25367;-35.352;149.036;2023-01-16T06:48:47;3.50;;;1.10;;
39694;SDS011;25367;-35.352;149.036;2023-01-16T06:51:16;2.63;;;0.90;;
39694;SDS011;25367;-35.352;149.036;2023-01-16T06:53:45;1.92;;;0.90;;
39694;SDS011;25367;-35.352;149.036;2023-01-16T06:56:15;4.57;;;1.17;;
39694;SDS011;25367;-35.352;149.036;2023-01-16T06:58:44;8.57;;;1.00;;
39694;SDS011;25367;-35.352;149.036;2023-01-16T07:01:15;4.53;;;1.48;;
39694;SDS011;25367;-35.352;149.036;2023-01-16T07:03:45;5.40;;;1.42;;
39694;SDS011;25367;-35.352;149.036;2023-01-16T07:06:14;6.50;;;1.77;;
39694;SDS011;25367;-35.352;149.036;2023-01-16T07:08:44;3.55;;;1.30;;
39694;SDS011;25367;-35.352;149.036;2023-01-16T07:11:13;4.03;;;1.02;;
39694;SDS011;25367;-35.352;149.036;2023-01-16T07:13:43;5.40;;;1.30;;
39694;SDS011;25367;-35.352;149.036;2023-01-16T07:16:13;6.03;;;1.15;;
39694;SDS011;25367;-35.352;149.036;2023-01-16T07:18:45;9.15;;;1.58;;
39694;SDS011;25367;-35.352;149.036;2023-01-16T07:21:14;3.92;;;1.50;;
39694;SDS011;25367;-35.352;149.036;2023-01-16T07:23:46;4.68;;;1.40;;
39694;SDS011;25367;-35.352;149.036;2023-01-16T07:26:17;6.10;;;1.02;;
39694;SDS011;25367;-35.352;149.036;2023-01-16T07:28:48;3.53;;;0.90;;
39694;SDS011;25367;-35.352;149.036;2023-01-16T07:31:21;2.30;;;1.00;;
39694;SDS011;25367;-35.352;149.036;2023-01-16T07:33:51;1.60;;;1.00;;
39694;SDS011;25367;-35.352;149.036;2023-01-16T07:36:21;1.55;;;0.82;;
39694;SDS011;25367;-35.352;149.036;2023-01-16T07:38:50;5.25;;;1.10;;
39694;SDS011;25367;-35.352;149.036;2023-01-16T07:41:20;4.85;;;1.10;;
39694;SDS011;25367;-35.352;149.036;2023-01-16T07:43:49;3.38;;;1.23;;
39694;SDS011;25367;-35.352;149.036;2023-01-16T07:46:22;4.47;;;1.00;;
39694;SDS011;25367;-35.352;149.036;2023-01-16T07:48:51;2.55;;;0.82;;
39694;SDS011;25367;-35.352;149.036;2023-01-16T07:51:21;5.72;;;0.95;;
39694;SDS011;25367;-35.352;149.036;2023-01-16T07:53:50;4.43;;;0.80;;
39694;SDS011;25367;-35.352;149.036;2023-01-16T07:56:20;0.85;;;0.70;;
39694;SDS011;25367;-35.352;149.036;2023-01-16T07:58:49;2.13;;;0.98;;
39694;SDS011;25367;-35.352;149.036;2023-01-16T08:01:20;4.15;;;1.42;;
39694;SDS011;25367;-35.352;149.036;2023-01-16T08:03:50;6.03;;;0.80;;
39694;SDS011;25367;-35.352;149.036;2023-01-16T08:06:19;1.95;;;0.98;;
39694;SDS011;25367;-35.352;149.036;2023-01-16T08:08:48;3.50;;;0.80;;
39694;SDS011;25367;-35.352;149.036;2023-01-16T18:11:37;4.68;;;1.20;;
39694;SDS011;25367;-35.352;149.036;2023-01-16T18:14:09;5.25;;;1.60;;
39694;SDS011;25367;-35.352;149.036;2023-01-16T18:16:39;6.78;;;1.13;;
39694;SDS011;25367;-35.352;149.036;2023-01-16T18:19:08;4.03;;;1.48;;
39694;SDS011;25367;-35.352;149.036;2023-01-16T18:21:37;3.47;;;1.20;;
39694;SDS011;25367;-35.352;149.036;2023-01-16T18:24:07;2.40;;;0.98;;
39694;SDS011;25367;-35.352;149.036;2023-01-16T18:26:38;3.78;;;1.40;;
39694;SDS011;25367;-35.352;149.036;2023-01-16T18:29:08;4.40;;;1.00;;
39694;SDS011;25367;-35.352;149.036;2023-01-16T18:31:37;3.85;;;1.50;;
39694;SDS011;25367;-35.352;149.036;2023-01-16T18:34:07;7.68;;;1.60;;
39694;SDS011;25367;-35.352;149.036;2023-01-16T18:36:36;2.80;;;1.00;;
39694;SDS011;25367;-35.352;149.036;2023-01-16T18:39:06;6.97;;;2.25;;
39694;SDS011;25367;-35.352;149.036;2023-01-16T18:41:35;3.65;;;1.40;;
39694;SDS011;25367;-35.352;149.036;2023-01-16T18:44:07;5.15;;;1.30;;
39694;SDS011;25367;-35.352;149.036;2023-01-16T18:46:38;4.43;;;1.45;;
39694;SDS011;25367;-35.352;149.036;2023-01-16T18:49:07;3.95;;;0.98;;
39694;SDS011;25367;-35.352;149.036;2023-01-16T18:51:37;4.05;;;1.15;;
39694;SDS011;25367;-35.352;149.036;2023-01-16T18:54:09;4.25;;;1.58;;
39694;SDS011;25367;-35.352;149.036;2023-01-16T18:56:45;4.38;;;1.35;;
39694;SDS011;25367;-35.352;149.036;2023-01-16T18:59:21;4.07;;;1.40;;
39694;SDS011;25367;-35.352;149.036;2023-01-16T19:01:51;4.88;;;1.63;;
39694;SDS011;25367;-35.352;149.036;2023-01-16T19:04:21;3.97;;;1.13;;
39694;SDS011;25367;-35.352;149.036;2023-01-16T19:06:50;5.28;;;1.55;;
39694;SDS011;25367;-35.352;149.036;2023-01-16T19:09:20;4.97;;;1.20;;
39694;SDS011;25367;-35.352;149.036;2023-01-16T19:11:51;7.82;;;1.52;;
39694;SDS011;25367;-35.352;149.036;2023-01-16T19:14:21;7.03;;;1.43;;
39694;SDS011;25367;-35.352;149.036;2023-01-16T19:16:53;3.13;;;1.20;;
39694;SDS011;25367;-35.352;149.036;2023-01-16T19:19:23;4.57;;;1.13;;
39694;SDS011;25367;-35.352;149.036;2023-01-16T19:21:53;2.92;;;1.08;;
39694;SDS011;25367;-35.352;149.036;2023-01-16T19:24:25;4.18;;;1.10;;
39694;SDS011;25367;-35.352;149.036;2023-01-16T19:26:58;5.28;;;1.60;;
39694;SDS011;25367;-35.352;149.036;2023-01-16T19:29:27;6.80;;;1.67;;
39694;SDS011;25367;-35.352;149.036;2023-01-16T19:31:57;4.47;;;1.10;;
39694;SDS011;25367;-35.352;149.036;2023-01-16T19:34:27;4.28;;;1.38;;
39694;SDS011;25367;-35.352;149.036;2023-01-16T19:36:56;4.07;;;1.10;;
39694;SDS011;25367;-35.352;149.036;2023-01-16T19:39:25;2.90;;;0.88;;
39694;SDS011;25367;-35.352;149.036;2023-01-16T19:41:58;4.03;;;1.08;;
39694;SDS011;25367;-35.352;149.036;2023-01-16T19:44:28;5.50;;;1.48;;
39694;SDS011;25367;-35.352;149.036;2023-01-16T19:46:57;3.72;;;1.10;;
39694;SDS011;25367;-35.352;149.036;2023-01-16T19:49:27;2.75;;;1.08;;
39694;SDS011;25367;-35.352;149.036;2023-01-16T19:51:57;6.18;;;1.30;;
39694;SDS011;25367;-35.352;149.036;2023-01-16T19:54:27;3.13;;;1.33;;
39694;SDS011;25367;-35.352;149.036;2023-01-16T19:56:59;2.95;;;1.00;;
39694;SDS011;25367;-35.352;149.036;2023-01-16T19:59:29;3.83;;;1.17;;
39694;SDS011;25367;-35.352;149.036;2023-01-16T20:01:59;4.22;;;1.20;;
39694;SDS011;25367;-35.352;149.036;2023-01-16T20:04:29;7.47;;;1.73;;
39694;SDS011;25367;-35.352;149.036;2023-01-16T20:07:00;6.05;;;1.15;;
39694;SDS011;25367;-35.352;149.036;2023-01-16T20:09:30;3.38;;;0.90;;
39694;SDS011;25367;-35.352;149.036;2023-01-16T20:12:03;5.32;;;1.27;;
39694;SDS011;25367;-35.352;149.036;2023-01-16T20:14:33;4.72;;;1.35;;
39694;SDS011;25367;-35.352;149.036;2023-01-16T20:17:02;3.90;;;1.17;;
39694;SDS011;25367;-35.352;149.036;2023-01-16T20:19:32;3.75;;;1.08;;
39694;SDS011;25367;-35.352;149.036;2023-01-16T20:22:01;4.15;;;1.10;;
39694;SDS011;25367;-35.352;149.036;2023-01-16T20:24:31;3.47;;;0.85;;
39694;SDS011;25367;-35.352;149.036;2023-01-16T20:27:03;4.95;;;1.17;;
39694;SDS011;25367;-35.352;149.036;2023-01-16T20:29:32;3.45;;;1.38;;
39694;SDS011;25367;-35.352;149.036;2023-01-16T20:32:02;5.85;;;1.50;;
39694;SDS011;25367;-35.352;149.036;2023-01-16T20:34:32;7.15;;;1.00;;
39694;SDS011;25367;-35.352;149.036;2023-01-16T20:37:01;5.13;;;1.15;;
39694;SDS011;25367;-35.352;149.036;2023-01-16T20:39:30;3.85;;;1.00;;
39694;SDS011;25367;-35.352;149.036;2023-01-16T20:42:02;4.47;;;1.33;;
39694;SDS011;25367;-35.352;149.036;2023-01-16T20:44:32;4.78;;;1.20;;
39694;SDS011;25367;-35.352;149.036;2023-01-16T20:47:01;5.95;;;1.58;;
39694;SDS011;25367;-35.352;149.036;2023-01-16T20:49:31;5.40;;;1.17;;
39694;SDS011;25367;-35.352;149.036;2023-01-16T20:52:01;7.28;;;1.27;;
39694;SDS011;25367;-35.352;149.036;2023-01-16T20:54:31;5.30;;;1.45;;
39694;SDS011;25367;-35.352;149.036;2023-01-16T20:57:02;4.85;;;1.27;;
39694;SDS011;25367;-35.352;149.036;2023-01-16T20:59:32;2.42;;;0.95;;
39694;SDS011;25367;-35.352;149.036;2023-01-16T21:02:01;5.75;;;1.20;;
39694;SDS011;25367;-35.352;149.036;2023-01-16T21:04:31;2.92;;;1.00;;
39694;SDS011;25367;-35.352;149.036;2023-01-16T21:07:01;6.50;;;1.30;;
39694;SDS011;25367;-35.352;149.036;2023-01-16T21:09:30;5.25;;;1.10;;
39694;SDS011;25367;-35.352;149.036;2023-01-16T21:12:00;2.95;;;1.15;;
39694;SDS011;25367;-35.352;149.036;2023-01-16T21:14:31;11.80;;;1.33;;
39694;SDS011;25367;-35.352;149.036;2023-01-16T21:17:01;3.78;;;1.20;;
39694;SDS011;25367;-35.352;149.036;2023-01-16T21:19:32;3.13;;;0.98;;
39694;SDS011;25367;-35.352;149.036;2023-01-16T21:22:02;4.85;;;1.30;;
39694;SDS011;25367;-35.352;149.036;2023-01-16T21:24:31;3.33;;;0.88;;
39694;SDS011;25367;-35.352;149.036;2023-01-16T21:27:06;4.32;;;1.15;;
39694;SDS011;25367;-35.352;149.036;2023-01-16T21:29:36;3.80;;;1.00;;
39694;SDS011;25367;-35.352;149.036;2023-01-16T21:32:05;5.50;;;1.33;;
39694;SDS011;25367;-35.352;149.036;2023-01-16T21:34:35;1.42;;;0.82;;
39694;SDS011;25367;-35.352;149.036;2023-01-16T21:37:05;3.45;;;1.02;;
39694;SDS011;25367;-35.352;149.036;2023-01-16T21:39:35;11.77;;;1.20;;
39694;SDS011;25367;-35.352;149.036;2023-01-16T21:42:06;1.83;;;0.85;;
39694;SDS011;25367;-35.352;149.036;2023-01-16T21:44:36;4.77;;;0.90;;
39694;SDS011;25367;-35.352;149.036;2023-01-16T21:47:06;3.65;;;1.15;;
39694;SDS011;25367;-35.352;149.036;2023-01-16T21:49:35;3.00;;;0.80;;
39694;SDS011;25367;-35.352;149.036;2023-01-16T21:52:05;3.88;;;1.20;;
39694;SDS011;25367;-35.352;149.036;2023-01-16T21:54:34;2.55;;;0.70;;
39694;SDS011;25367;-35.352;149.036;2023-01-16T21:57:05;6.20;;;1.20;;
39694;SDS011;25367;-35.352;149.036;2023-01-16T21:59:35;4.57;;;0.93;;
39694;SDS011;25367;-35.352;149.036;2023-01-16T22:02:05;3.42;;;1.02;;
39694;SDS011;25367;-35.352;149.036;2023-01-16T22:04:34;4.05;;;1.13;;
39694;SDS011;25367;-35.352;149.036;2023-01-16T22:07:03;3.45;;;0.90;;
39694;SDS011;25367;-35.352;149.036;2023-01-16T22:09:33;4.47;;;0.80;;
39694;SDS011;25367;-35.352;149.036;2023-01-16T22:12:02;8.10;;;0.98;;
39694;SDS011;25367;-35.352;149.036;2023-01-16T22:17:03;11.05;;;1.92;;
39694;SDS011;25367;-35.352;149.036;2023-01-16T22:22:04;5.00;;;1.02;;
39694;SDS011;25367;-35.352;149.036;2023-01-16T22:24:34;11.13;;;0.98;;
39694;SDS011;25367;-35.352;149.036;2023-01-16T22:27:05;8.70;;;1.27;;
39694;SDS011;25367;-35.352;149.036;2023-01-16T22:29:35;6.97;;;1.08;;
39694;SDS011;25367;-35.352;149.036;2023-01-16T22:32:04;4.90;;;1.25;;
39694;SDS011;25367;-35.352;149.036;2023-01-16T22:34:34;3.15;;;1.35;;
39694;SDS011;25367;-35.352;149.036;2023-01-16T22:37:03;7.70;;;1.83;;
39694;SDS011;25367;-35.352;149.036;2023-01-16T22:39:32;3.83;;;1.33;;
39694;SDS011;25367;-35.352;149.036;2023-01-16T22:42:02;7.25;;;1.80;;
39694;SDS011;25367;-35.352;149.036;2023-01-16T22:44:33;20.23;;;1.90;;
39694;SDS011;25367;-35.352;149.036;2023-01-16T22:47:03;3.67;;;1.88;;
39694;SDS011;25367;-35.352;149.036;2023-01-16T22:49:33;5.00;;;2.20;;
39694;SDS011;25367;-35.352;149.036;2023-01-16T22:52:02;7.28;;;2.67;;
39694;SDS011;25367;-35.352;149.036;2023-01-16T22:54:32;7.88;;;2.40;;
39694;SDS011;25367;-35.352;149.036;2023-01-16T22:57:01;4.40;;;2.30;;
39694;SDS011;25367;-35.352;149.036;2023-01-16T22:59:34;6.65;;;2.55;;
39694;SDS011;25367;-35.352;149.036;2023-01-16T23:02:03;13.32;;;2.75;;
39694;SDS011;25367;-35.352;149.036;2023-01-16T23:04:33;4.97;;;2.42;;
39694;SDS011;25367;-35.352;149.036;2023-01-16T23:07:03;6.68;;;2.22;;
39694;SDS011;25367;-35.352;149.036;2023-01-16T23:09:33;8.45;;;2.45;;
39694;SDS011;25367;-35.352;149.036;2023-01-16T23:12:03;5.50;;;2.20;;
39694;SDS011;25367;-35.352;149.036;2023-01-16T23:14:34;7.47;;;2.60;;
39694;SDS011;25367;-35.352;149.036;2023-01-16T23:17:03;9.52;;;2.85;;
39694;SDS011;25367;-35.352;149.036;2023-01-16T23:19:33;5.88;;;2.90;;
39694;SDS011;25367;-35.352;149.036;2023-01-16T23:22:02;6.70;;;2.63;;
39694;SDS011;25367;-35.352;149.036;2023-01-16T23:24:32;4.90;;;2.22;;
39694;SDS011;25367;-35.352;149.036;2023-01-16T23:27:01;7.45;;;2.20;;
39694;SDS011;25367;-35.352;149.036;2023-01-16T23:29:31;5.05;;;2.33;;
39694;SDS011;25367;-35.352;149.036;2023-01-16T23:32:02;5.68;;;2.20;;
39694;SDS011;25367;-35.352;149.036;2023-01-16T23:34:32;5.15;;;2.47;;
39694;SDS011;25367;-35.352;149.036;2023-01-16T23:37:01;5.15;;;2.20;;
39694;SDS011;25367;-35.352;149.036;2023-01-16T23:39:31;7.22;;;2.45;;
39694;SDS011;25367;-35.352;149.036;2023-01-16T23:42:00;6.45;;;2.00;;
39694;SDS011;25367;-35.352;149.036;2023-01-16T23:44:29;7.65;;;2.55;;
39694;SDS011;25367;-35.352;149.036;2023-01-16T23:47:01;5.75;;;2.33;;
39694;SDS011;25367;-35.352;149.036;2023-01-16T23:49:35;5.75;;;2.20;;
39694;SDS011;25367;-35.352;149.036;2023-01-16T23:52:06;6.32;;;2.15;;
39694;SDS011;25367;-35.352;149.036;2023-01-16T23:54:36;4.07;;;2.03;;
39694;SDS011;25367;-35.352;149.036;2023-01-16T23:57:06;3.22;;;1.65;;
39694;SDS011;25367;-35.352;149.036;2023-01-16T23:59:37;3.72;;;1.98;;
